createdAt,value
2023-09-13T00:01:31.667Z,19.80
2023-09-13T00:06:25.179Z,19.90
2023-09-13T00:11:18.448Z,20.00
2023-09-13T00:16:14.332Z,20.10
2023-09-13T00:21:10.980Z,20.00
2023-09-13T00:26:06.528Z,20.00
2023-09-13T00:31:00.444Z,19.90
2023-09-13T00:35:59.378Z,20.00
2023-09-13T00:40:53.254Z,20.00
2023-09-13T00:45:51.691Z,20.10
2023-09-13T00:50:53.964Z,20.00
2023-09-13T00:55:52.028Z,19.90
2023-09-13T01:00:45.409Z,19.90
2023-09-13T01:05:39.260Z,19.90
2023-09-13T01:10:32.565Z,19.90
2023-09-13T01:15:29.706Z,19.90
2023-09-13T01:20:42.747Z,19.90
2023-09-13T01:26:33.878Z,19.90
2023-09-13T01:31:30.188Z,19.90
2023-09-13T01:36:23.545Z,19.80
2023-09-13T01:41:24.721Z,19.60
2023-09-13T01:46:18.135Z,19.60
2023-09-13T01:51:13.199Z,19.60
2023-09-13T01:56:06.432Z,19.50
2023-09-13T02:00:59.884Z,19.50
2023-09-13T02:05:53.227Z,19.60
2023-09-13T02:10:50.300Z,19.60
2023-09-13T02:15:43.817Z,19.60
2023-09-13T02:20:37.239Z,19.60
2023-09-13T02:25:30.691Z,19.60
2023-09-13T02:30:26.179Z,19.60
2023-09-13T02:35:19.681Z,19.50
2023-09-13T02:40:13.828Z,19.40
2023-09-13T02:45:08.961Z,19.50
2023-09-13T02:50:05.227Z,19.60
2023-09-13T02:54:59.217Z,19.50
2023-09-13T02:59:52.795Z,19.40
2023-09-13T03:04:46.500Z,19.30
2023-09-13T03:09:41.129Z,19.20
2023-09-13T03:14:34.900Z,19.10
2023-09-13T03:19:29.174Z,19.00
2023-09-13T03:24:22.409Z,18.90
2023-09-13T03:29:17.897Z,19.00
2023-09-13T03:34:11.237Z,19.00
2023-09-13T03:39:05.503Z,19.00
2023-09-13T03:43:58.906Z,18.90
2023-09-13T03:48:53.643Z,18.80
2023-09-13T03:53:51.187Z,18.90
2023-09-13T03:58:44.974Z,19.00
2023-09-13T04:03:38.489Z,19.00
2023-09-13T04:08:33.168Z,18.70
2023-09-13T04:13:26.580Z,18.60
2023-09-13T04:18:19.934Z,18.50
2023-09-13T04:23:13.211Z,18.50
2023-09-13T04:28:08.307Z,18.70
2023-09-13T04:33:03.924Z,18.70
2023-09-13T04:37:58.465Z,18.70
2023-09-13T04:42:57.335Z,18.70
2023-09-13T04:47:52.124Z,18.70
2023-09-13T04:52:45.532Z,18.60
2023-09-13T04:57:39.051Z,18.50
2023-09-13T05:02:32.501Z,18.60
2023-09-13T05:07:27.373Z,18.60
2023-09-13T05:12:20.690Z,18.70
2023-09-13T05:17:14.029Z,18.90
2023-09-13T05:22:07.447Z,19.00
2023-09-13T05:27:03.835Z,19.10
2023-09-13T05:31:59.108Z,19.00
2023-09-13T05:36:52.694Z,19.00
2023-09-13T05:41:46.596Z,18.90
2023-09-13T05:46:41.332Z,18.90
2023-09-13T05:51:34.690Z,18.90
2023-09-13T05:56:28.244Z,19.00
2023-09-13T06:01:21.674Z,19.10
2023-09-13T06:06:16.424Z,19.20
2023-09-13T06:11:09.916Z,19.30
2023-09-13T06:16:03.305Z,19.30
2023-09-13T06:20:56.853Z,19.30
2023-09-13T06:25:55.176Z,19.30
2023-09-13T06:32:31.483Z,19.30
2023-09-13T06:37:19.799Z,19.30
2023-09-13T06:42:26.609Z,19.30
2023-09-13T06:47:22.856Z,19.30
2023-09-13T06:52:16.632Z,19.40
2023-09-13T06:57:13.016Z,19.40
2023-09-13T07:02:30.448Z,19.50
2023-09-13T07:07:24.031Z,19.50
2023-09-13T07:12:17.387Z,19.40
2023-09-13T07:17:12.340Z,19.40
2023-09-13T07:22:06.101Z,19.40
2023-09-13T07:26:59.640Z,19.40
2023-09-13T07:31:53.014Z,19.40
2023-09-13T07:36:52.387Z,19.40
2023-09-13T07:41:45.691Z,19.40
2023-09-13T07:46:39.117Z,19.30
2023-09-13T07:51:32.702Z,19.40
2023-09-13T07:56:27.377Z,19.40
2023-09-13T08:01:20.764Z,19.40
2023-09-13T08:06:14.125Z,19.50
2023-09-13T08:11:07.487Z,19.60
2023-09-13T08:16:02.352Z,19.70
2023-09-13T08:20:55.750Z,19.60
2023-09-13T08:25:49.292Z,19.70
2023-09-13T08:30:42.723Z,19.70
2023-09-13T08:35:37.477Z,19.70
2023-09-13T08:40:30.994Z,19.60
2023-09-13T08:45:24.790Z,19.50
2023-09-13T08:50:24.388Z,19.50
2023-09-13T08:55:22.188Z,19.50
2023-09-13T09:00:17.611Z,19.50
2023-09-13T09:05:14.655Z,19.50
2023-09-13T09:10:12.834Z,19.50
2023-09-13T09:15:11.084Z,19.50
2023-09-13T09:20:05.149Z,19.60
2023-09-13T09:24:59.665Z,19.70
2023-09-13T09:30:04.385Z,19.90
2023-09-13T09:35:00.863Z,20.10
2023-09-13T09:39:54.245Z,20.30
2023-09-13T09:44:48.150Z,20.40
2023-09-13T09:49:41.862Z,20.60
2023-09-13T09:54:38.642Z,20.70
2023-09-13T09:59:32.416Z,20.70
2023-09-13T10:04:25.834Z,20.70
2023-09-13T10:09:19.223Z,20.70
2023-09-13T10:14:28.089Z,20.80
2023-09-13T10:19:25.241Z,20.90
2023-09-13T10:24:24.364Z,21.00
2023-09-13T10:29:32.336Z,21.00
2023-09-13T10:34:28.940Z,21.00
2023-09-13T10:39:29.820Z,21.10
2023-09-13T10:44:25.418Z,21.40
2023-09-13T10:49:18.979Z,21.50
2023-09-13T10:54:14.853Z,21.40
2023-09-13T10:59:10.121Z,21.40
2023-09-13T11:04:07.658Z,21.50
2023-09-13T11:09:13.756Z,21.70
2023-09-13T11:14:12.932Z,21.80
2023-09-13T11:19:12.813Z,21.80
2023-09-13T11:24:08.645Z,21.80
2023-09-13T11:29:24.911Z,21.70
2023-09-13T11:34:21.981Z,21.90
2023-09-13T11:39:16.833Z,22.30
2023-09-13T11:44:27.248Z,22.60
2023-09-13T11:49:37.290Z,22.70
2023-09-13T11:54:31.418Z,22.60
2023-09-13T11:59:26.734Z,22.60
2023-09-13T12:04:52.285Z,22.60
2023-09-13T12:09:39.630Z,22.60
2023-09-13T12:14:56.838Z,22.50
2023-09-13T12:19:48.496Z,22.50
2023-09-13T12:24:53.983Z,22.40
2023-09-13T12:29:48.122Z,22.30
2023-09-13T12:34:41.805Z,22.20
2023-09-13T12:39:35.147Z,22.10
2023-09-13T12:44:30.044Z,22.00
2023-09-13T12:49:23.454Z,22.00
2023-09-13T12:54:16.801Z,22.00
2023-09-13T12:59:10.630Z,22.10
2023-09-13T13:04:10.365Z,22.10
2023-09-13T13:09:06.852Z,22.10
2023-09-13T13:14:00.181Z,22.10
2023-09-13T13:18:56.526Z,22.10
2023-09-13T13:23:52.707Z,22.10
2023-09-13T13:28:47.779Z,22.10
2023-09-13T13:33:41.431Z,22.20
2023-09-13T13:38:36.071Z,22.20
2023-09-13T13:43:30.735Z,22.30
2023-09-13T13:48:24.118Z,22.20
2023-09-13T13:53:17.480Z,22.40
2023-09-13T13:58:10.831Z,22.60
2023-09-13T14:03:06.271Z,22.60
2023-09-13T14:07:59.674Z,22.60
2023-09-13T14:12:57.298Z,22.50
2023-09-13T14:17:51.050Z,22.40
2023-09-13T14:22:45.677Z,22.20
2023-09-13T14:27:54.111Z,22.10
2023-09-13T14:32:52.416Z,21.90
2023-09-13T14:37:47.134Z,21.60
2023-09-13T14:42:40.706Z,21.30
2023-09-13T14:47:34.163Z,21.10
2023-09-13T14:52:27.551Z,21.20
2023-09-13T14:57:22.397Z,21.00
2023-09-13T15:02:16.021Z,20.90
2023-09-13T15:07:09.453Z,20.70
2023-09-13T15:12:02.800Z,20.60
2023-09-13T15:16:57.411Z,20.40
2023-09-13T15:21:50.805Z,20.40
2023-09-13T15:26:44.222Z,20.30
2023-09-13T15:32:07.982Z,20.20
2023-09-13T15:36:57.168Z,20.30
2023-09-13T15:41:50.487Z,20.20
2023-09-13T15:46:49.338Z,20.00
2023-09-13T15:51:42.791Z,19.90
2023-09-13T15:56:37.546Z,19.70
2023-09-13T16:01:33.233Z,19.50
2023-09-13T16:06:27.378Z,19.50
2023-09-13T16:11:20.699Z,19.50
2023-09-13T16:16:15.392Z,19.40
2023-09-13T16:21:08.937Z,19.30
2023-09-13T16:26:02.756Z,19.40
2023-09-13T16:30:56.231Z,19.40
2023-09-13T16:35:50.974Z,19.30
2023-09-13T16:40:44.308Z,19.20
2023-09-13T16:45:37.730Z,19.20
2023-09-13T16:50:31.109Z,19.20
2023-09-13T16:55:26.261Z,19.20
2023-09-13T17:00:22.859Z,19.20
2023-09-13T17:05:16.449Z,19.10
2023-09-13T17:10:10.798Z,19.10
2023-09-13T17:15:06.583Z,18.90
2023-09-13T17:19:59.918Z,18.70
2023-09-13T17:24:53.295Z,18.70
2023-09-13T17:29:46.597Z,18.70
2023-09-13T17:34:41.518Z,18.70
2023-09-13T17:39:34.912Z,18.70
2023-09-13T17:44:28.261Z,18.70
2023-09-13T17:49:21.638Z,18.70
2023-09-13T17:54:16.513Z,18.70
2023-09-13T17:59:10.000Z,18.70
2023-09-13T18:04:03.543Z,18.70
2023-09-13T18:08:57.429Z,18.70
2023-09-13T18:13:52.126Z,18.80
2023-09-13T18:18:45.755Z,18.70
2023-09-13T18:23:39.399Z,18.60
2023-09-13T18:28:33.496Z,18.60
2023-09-13T18:33:28.258Z,18.70
2023-09-13T18:38:21.704Z,18.70
2023-09-13T18:43:15.045Z,18.70
2023-09-13T18:48:09.127Z,18.60
2023-09-13T18:53:04.607Z,18.60
2023-09-13T18:57:57.937Z,18.50
2023-09-13T19:02:52.513Z,18.50
2023-09-13T19:07:47.429Z,18.50
2023-09-13T19:12:42.171Z,18.50
2023-09-13T19:17:35.522Z,18.40
2023-09-13T19:22:29.603Z,18.30
2023-09-13T19:27:22.977Z,18.30
2023-09-13T19:32:17.670Z,18.30
2023-09-13T19:37:11.084Z,18.40
2023-09-13T19:42:04.644Z,18.40
2023-09-13T19:46:57.991Z,18.50
2023-09-13T19:51:52.761Z,18.50
2023-09-13T19:56:46.071Z,18.50
2023-09-13T20:01:39.410Z,18.50
2023-09-13T20:06:36.560Z,18.50
2023-09-13T20:11:31.680Z,18.50
2023-09-13T20:16:25.047Z,18.40
2023-09-13T20:21:18.732Z,18.40
2023-09-13T20:26:12.238Z,18.40
2023-09-13T20:31:07.013Z,18.40
2023-09-13T20:36:01.287Z,18.30
2023-09-13T20:40:54.636Z,18.20
2023-09-13T20:45:49.916Z,18.10
2023-09-13T20:50:44.749Z,18.00
2023-09-13T20:55:38.131Z,17.80
2023-09-13T21:00:31.547Z,17.70
2023-09-13T21:05:24.968Z,17.70
2023-09-13T21:10:19.692Z,17.60
2023-09-13T21:15:13.629Z,17.60
2023-09-13T21:20:08.826Z,17.60
2023-09-13T21:25:02.270Z,17.60
2023-09-13T21:29:56.990Z,17.60
2023-09-13T21:35:00.593Z,17.50
2023-09-13T21:39:56.036Z,17.50
2023-09-13T21:44:50.870Z,17.50
2023-09-13T21:49:45.556Z,17.50
2023-09-13T21:54:47.681Z,17.60
2023-09-13T21:59:41.365Z,17.60
2023-09-13T22:04:35.006Z,17.60
2023-09-13T22:09:31.271Z,17.70
2023-09-13T22:14:24.973Z,17.70
2023-09-13T22:19:18.646Z,17.60
2023-09-13T22:24:12.314Z,17.60
2023-09-13T22:29:07.413Z,17.60
2023-09-13T22:34:01.142Z,17.60
2023-09-13T22:39:06.399Z,17.60
2023-09-13T22:44:02.229Z,17.70
2023-09-13T22:48:57.216Z,17.70
2023-09-13T22:53:50.902Z,17.70
2023-09-13T22:58:44.834Z,17.70
2023-09-13T23:03:45.250Z,17.70
2023-09-13T23:08:41.535Z,17.70
2023-09-13T23:13:35.075Z,17.70
2023-09-13T23:18:29.019Z,17.70
2023-09-13T23:23:22.861Z,17.70
2023-09-13T23:28:17.574Z,17.70
2023-09-13T23:33:13.690Z,17.60
2023-09-13T23:38:07.000Z,17.70
2023-09-13T23:43:00.379Z,17.80
2023-09-13T23:47:55.288Z,17.80
2023-09-13T23:52:49.080Z,17.70
2023-09-13T23:57:45.837Z,17.70
